createdAt,value
2017-08-24T00:02:27.211Z,7.73
2017-08-24T00:04:55.530Z,7.87
2017-08-24T00:07:23.838Z,8.30
2017-08-24T00:09:52.178Z,8.50
2017-08-24T00:12:20.472Z,7.90
2017-08-24T00:14:48.804Z,8.87
2017-08-24T00:17:17.122Z,8.63
2017-08-24T00:19:45.456Z,7.80
2017-08-24T00:22:13.761Z,8.83
2017-08-24T00:24:42.094Z,7.87
2017-08-24T00:27:10.414Z,8.37
2017-08-24T00:29:38.711Z,8.50
2017-08-24T00:32:07.017Z,8.10
2017-08-24T00:34:35.321Z,8.10
2017-08-24T00:37:03.632Z,9.30
2017-08-24T00:39:31.940Z,7.50
2017-08-24T00:42:00.968Z,8.37
2017-08-24T00:44:29.290Z,8.57
2017-08-24T00:46:57.595Z,8.40
2017-08-24T00:49:25.988Z,9.20
2017-08-24T00:51:54.302Z,9.03
2017-08-24T00:54:22.613Z,9.47
2017-08-24T00:56:50.931Z,8.17
2017-08-24T00:59:19.411Z,8.93
2017-08-24T01:01:47.709Z,8.27
2017-08-24T01:04:16.037Z,9.10
2017-08-24T01:06:44.359Z,8.53
2017-08-24T01:09:12.669Z,8.40
2017-08-24T01:11:40.992Z,8.70
2017-08-24T01:14:09.293Z,8.70
2017-08-24T01:16:37.593Z,8.67
2017-08-24T01:19:05.895Z,8.93
2017-08-24T01:21:34.202Z,8.43
2017-08-24T01:24:02.510Z,9.77
2017-08-24T01:26:30.826Z,8.37
2017-08-24T01:28:59.142Z,8.83
2017-08-24T01:31:27.483Z,8.60
2017-08-24T01:33:55.793Z,8.83
2017-08-24T01:36:24.103Z,9.17
2017-08-24T01:38:52.418Z,8.40
2017-08-24T01:41:20.747Z,8.00
2017-08-24T01:43:49.066Z,7.97
2017-08-24T01:46:24.202Z,7.80
2017-08-24T01:48:52.560Z,7.40
2017-08-24T01:51:20.882Z,7.90
2017-08-24T01:53:49.215Z,8.40
2017-08-24T01:56:17.526Z,8.80
2017-08-24T01:58:45.892Z,7.53
2017-08-24T02:01:14.189Z,8.20
2017-08-24T02:03:42.531Z,7.67
2017-08-24T02:06:10.855Z,8.13
2017-08-24T02:08:39.170Z,8.77
2017-08-24T02:11:07.481Z,8.50
2017-08-24T02:13:35.777Z,8.50
2017-08-24T02:16:04.080Z,6.83
2017-08-24T02:18:32.446Z,8.30
2017-08-24T02:21:00.774Z,8.43
2017-08-24T02:23:29.081Z,8.80
2017-08-24T02:25:57.377Z,7.20
2017-08-24T02:28:25.685Z,8.80
2017-08-24T02:30:53.982Z,8.40
2017-08-24T02:33:22.301Z,8.57
2017-08-24T02:35:58.433Z,7.97
2017-08-24T02:38:26.749Z,8.17
2017-08-24T02:40:55.059Z,8.63
2017-08-24T02:43:23.376Z,8.00
2017-08-24T02:45:51.784Z,9.67
2017-08-24T02:48:20.113Z,9.20
2017-08-24T02:50:48.429Z,9.20
2017-08-24T02:53:16.741Z,9.20
2017-08-24T02:55:45.069Z,10.47
2017-08-24T02:58:13.380Z,9.07
2017-08-24T03:00:41.703Z,8.67
2017-08-24T03:03:10.033Z,9.07
2017-08-24T03:05:38.361Z,8.17
2017-08-24T03:08:06.677Z,8.37
2017-08-24T03:10:35.012Z,8.90
2017-08-24T03:13:03.344Z,9.73
2017-08-24T03:15:31.654Z,10.43
2017-08-24T03:17:59.965Z,10.97
2017-08-24T03:20:28.272Z,10.37
2017-08-24T03:22:56.600Z,10.27
2017-08-24T03:25:24.925Z,11.90
2017-08-24T03:27:53.238Z,10.97
2017-08-24T03:30:21.581Z,10.43
2017-08-24T03:32:49.936Z,9.90
2017-08-24T03:35:18.259Z,10.23
2017-08-24T03:37:46.591Z,10.83
2017-08-24T03:40:14.916Z,11.60
2017-08-24T03:42:43.236Z,11.97
2017-08-24T03:45:11.571Z,11.97
2017-08-24T03:47:39.898Z,11.33
2017-08-24T03:50:08.218Z,10.97
2017-08-24T03:52:36.538Z,11.70
2017-08-24T03:55:04.870Z,9.60
2017-08-24T03:57:33.179Z,11.50
2017-08-24T04:00:01.507Z,11.40
2017-08-24T04:02:29.836Z,10.93
2017-08-24T04:04:58.245Z,9.63
2017-08-24T04:07:26.582Z,11.50
2017-08-24T04:09:54.892Z,10.73
2017-08-24T04:12:23.222Z,10.23
2017-08-24T04:14:51.538Z,10.03
2017-08-24T04:17:19.879Z,11.00
2017-08-24T04:19:48.192Z,11.90
2017-08-24T04:22:16.544Z,11.13
2017-08-24T04:24:44.873Z,10.77
2017-08-24T04:27:13.235Z,10.10
2017-08-24T04:29:41.593Z,10.37
2017-08-24T04:32:09.935Z,10.03
2017-08-24T04:34:38.261Z,9.63
2017-08-24T04:37:06.586Z,9.07
2017-08-24T04:39:34.925Z,9.37
2017-08-24T04:42:03.233Z,10.07
2017-08-24T04:44:31.814Z,10.50
2017-08-24T04:47:00.134Z,9.63
2017-08-24T04:49:28.470Z,11.13
2017-08-24T04:51:56.810Z,10.47
2017-08-24T04:54:25.121Z,10.03
2017-08-24T04:56:53.445Z,9.33
2017-08-24T04:59:21.780Z,9.37
2017-08-24T05:01:50.102Z,9.20
2017-08-24T05:04:18.409Z,9.77
2017-08-24T05:06:46.759Z,9.47
2017-08-24T05:09:15.070Z,9.27
2017-08-24T05:11:43.379Z,9.53
2017-08-24T05:14:11.698Z,9.80
2017-08-24T05:16:40.362Z,10.30
2017-08-24T05:19:08.749Z,10.57
2017-08-24T05:21:37.066Z,10.60
2017-08-24T05:24:05.381Z,8.97
2017-08-24T05:26:33.717Z,9.70
2017-08-24T05:29:02.054Z,9.10
2017-08-24T05:31:30.365Z,9.20
2017-08-24T05:33:58.678Z,9.73
2017-08-24T05:36:27.013Z,9.60
2017-08-24T05:38:55.328Z,9.87
2017-08-24T05:41:23.641Z,9.27
2017-08-24T05:43:51.962Z,9.10
2017-08-24T05:46:20.285Z,10.13
2017-08-24T05:48:48.598Z,8.90
2017-08-24T05:51:16.930Z,9.53
2017-08-24T05:53:45.242Z,8.37
2017-08-24T05:56:13.555Z,9.77
2017-08-24T05:58:41.879Z,9.57
2017-08-24T06:01:11.098Z,8.90
2017-08-24T06:03:39.410Z,9.37
2017-08-24T06:06:07.746Z,10.67
2017-08-24T06:08:36.067Z,9.40
2017-08-24T06:11:04.385Z,9.30
2017-08-24T06:13:32.710Z,10.37
2017-08-24T06:16:01.025Z,10.90
2017-08-24T06:18:29.334Z,10.70
2017-08-24T06:20:57.659Z,11.27
2017-08-24T06:23:25.978Z,10.93
2017-08-24T06:25:54.304Z,10.70
2017-08-24T06:28:22.623Z,11.70
2017-08-24T06:30:50.938Z,10.30
2017-08-24T06:33:19.253Z,10.87
2017-08-24T06:35:47.595Z,11.07
2017-08-24T06:38:15.911Z,10.50
2017-08-24T06:40:44.227Z,10.10
2017-08-24T06:43:12.554Z,10.93
2017-08-24T06:45:40.864Z,10.20
2017-08-24T06:48:09.186Z,9.87
2017-08-24T06:50:37.492Z,9.20
2017-08-24T06:53:05.801Z,9.67
2017-08-24T06:55:34.110Z,10.33
2017-08-24T06:58:02.430Z,9.43
2017-08-24T07:00:30.738Z,9.10
2017-08-24T07:02:59.078Z,10.47
2017-08-24T07:05:27.387Z,10.03
2017-08-24T07:07:55.700Z,10.07
2017-08-24T07:10:24.023Z,11.10
2017-08-24T07:12:52.335Z,10.27
2017-08-24T07:15:20.661Z,10.53
2017-08-24T07:17:48.971Z,10.37
2017-08-24T07:20:17.285Z,10.73
2017-08-24T07:22:45.591Z,9.53
2017-08-24T07:25:13.938Z,10.90
2017-08-24T07:27:42.268Z,11.17
2017-08-24T07:30:10.598Z,11.57
2017-08-24T07:32:38.926Z,13.50
2017-08-24T07:35:07.253Z,12.47
2017-08-24T07:37:35.598Z,11.63
2017-08-24T07:40:03.906Z,11.07
2017-08-24T07:42:32.237Z,11.13
2017-08-24T07:45:00.581Z,12.47
2017-08-24T07:47:28.906Z,10.80
2017-08-24T07:49:57.223Z,11.60
2017-08-24T07:52:25.573Z,10.53
2017-08-24T07:54:53.891Z,11.50
2017-08-24T07:57:22.207Z,10.57
2017-08-24T07:59:50.559Z,12.10
2017-08-24T08:02:18.875Z,12.57
2017-08-24T08:04:47.185Z,12.40
2017-08-24T08:07:15.530Z,12.50
2017-08-24T08:09:43.848Z,12.43
2017-08-24T08:12:12.161Z,12.80
2017-08-24T08:14:40.509Z,14.00
2017-08-24T08:17:08.835Z,15.80
2017-08-24T08:19:37.150Z,16.00
2017-08-24T08:22:05.497Z,18.57
2017-08-24T08:24:33.808Z,19.40
2017-08-24T08:27:02.127Z,18.77
2017-08-24T08:29:30.469Z,20.33
2017-08-24T08:31:58.778Z,20.70
2017-08-24T08:34:27.086Z,17.63
2017-08-24T08:36:55.434Z,18.43
2017-08-24T08:39:23.742Z,19.30
2017-08-24T08:41:52.057Z,19.40
2017-08-24T08:44:20.409Z,17.67
2017-08-24T08:46:48.729Z,17.23
2017-08-24T08:49:17.040Z,18.90
2017-08-24T08:51:45.397Z,18.40
2017-08-24T08:54:13.709Z,17.20
2017-08-24T08:56:42.027Z,17.63
2017-08-24T08:59:10.366Z,16.80
2017-08-24T09:01:38.690Z,16.50
2017-08-24T09:04:07.001Z,17.60
2017-08-24T09:06:35.355Z,17.93
2017-08-24T09:09:03.679Z,17.20
2017-08-24T09:11:32.005Z,17.10
2017-08-24T09:14:00.332Z,19.50
2017-08-24T09:16:28.669Z,16.60
2017-08-24T09:18:56.998Z,16.60
2017-08-24T09:21:25.326Z,19.10
2017-08-24T09:23:53.645Z,17.30
2017-08-24T09:26:21.953Z,17.67
2017-08-24T09:28:50.276Z,17.27
2017-08-24T09:31:18.598Z,17.40
2017-08-24T09:33:46.925Z,15.63
2017-08-24T09:36:15.242Z,15.07
2017-08-24T09:38:43.583Z,14.70
2017-08-24T09:41:11.905Z,14.97
2017-08-24T09:43:40.238Z,14.83
2017-08-24T09:46:08.551Z,15.20
2017-08-24T09:48:36.893Z,16.60
2017-08-24T09:51:05.211Z,17.90
2017-08-24T09:53:33.538Z,17.43
2017-08-24T09:56:01.851Z,19.57
2017-08-24T09:58:30.181Z,17.20
2017-08-24T10:00:58.490Z,18.20
2017-08-24T10:03:26.878Z,17.60
2017-08-24T10:05:55.198Z,18.13
2017-08-24T10:08:23.513Z,19.17
2017-08-24T10:10:51.840Z,21.40
2017-08-24T10:13:20.150Z,21.77
2017-08-24T10:15:48.474Z,24.13
2017-08-24T10:18:16.798Z,25.73
2017-08-24T10:20:45.138Z,25.80
2017-08-24T10:23:13.454Z,28.97
2017-08-24T10:25:41.787Z,29.50
2017-08-24T10:28:10.110Z,29.50
2017-08-24T10:30:38.467Z,32.07
2017-08-24T10:33:06.766Z,33.57
2017-08-24T10:35:35.094Z,37.53
2017-08-24T10:38:03.412Z,39.37
2017-08-24T10:40:31.742Z,41.17
2017-08-24T10:43:00.068Z,40.97
2017-08-24T10:45:28.398Z,40.70
2017-08-24T10:47:56.742Z,44.73
2017-08-24T10:50:25.073Z,42.47
2017-08-24T10:52:53.394Z,40.53
2017-08-24T10:55:21.723Z,42.47
2017-08-24T10:57:50.054Z,42.50
2017-08-24T11:00:18.394Z,41.83
2017-08-24T11:02:46.709Z,38.80
2017-08-24T11:05:15.031Z,39.30
2017-08-24T11:07:43.349Z,38.03
2017-08-24T11:10:11.686Z,39.33
2017-08-24T11:12:40.004Z,36.57
2017-08-24T11:15:08.314Z,37.23
2017-08-24T11:17:36.634Z,36.57
2017-08-24T11:20:04.947Z,37.30
2017-08-24T11:22:33.258Z,33.97
2017-08-24T11:25:01.582Z,34.57
2017-08-24T11:27:29.898Z,32.43
2017-08-24T11:29:58.219Z,35.23
2017-08-24T11:32:26.546Z,34.97
2017-08-24T11:34:54.857Z,35.20
2017-08-24T11:37:23.178Z,34.53
2017-08-24T11:39:51.486Z,34.43
2017-08-24T11:42:19.807Z,36.47
2017-08-24T11:44:48.130Z,38.10
2017-08-24T11:47:16.458Z,37.73
2017-08-24T11:49:44.768Z,37.33
2017-08-24T11:52:13.081Z,36.90
2017-08-24T11:54:41.389Z,39.17
2017-08-24T11:57:09.722Z,38.90
2017-08-24T11:59:38.026Z,36.80
2017-08-24T12:02:06.358Z,34.97
2017-08-24T12:04:34.667Z,36.67
2017-08-24T12:07:02.991Z,32.10
2017-08-24T12:09:31.308Z,31.03
2017-08-24T12:11:59.629Z,26.43
2017-08-24T12:14:27.942Z,25.60
2017-08-24T12:16:56.274Z,24.67
2017-08-24T12:19:24.588Z,21.43
2017-08-24T12:21:52.905Z,20.63
2017-08-24T12:24:21.227Z,20.27
2017-08-24T12:26:49.539Z,20.60
2017-08-24T12:29:17.853Z,20.60
2017-08-24T12:31:46.158Z,19.07
2017-08-24T12:34:14.474Z,21.07
2017-08-24T12:36:42.842Z,22.80
2017-08-24T12:39:11.158Z,23.53
2017-08-24T12:41:39.465Z,22.90
2017-08-24T12:44:07.783Z,22.57
2017-08-24T12:46:36.087Z,21.17
2017-08-24T12:49:04.407Z,21.03
2017-08-24T12:51:32.718Z,24.97
2017-08-24T12:54:01.030Z,23.57
2017-08-24T12:56:29.334Z,23.43
2017-08-24T12:58:58.655Z,23.47
2017-08-24T13:01:26.968Z,25.80
2017-08-24T13:03:55.287Z,24.63
2017-08-24T13:06:23.593Z,22.17
2017-08-24T13:08:51.933Z,20.80
2017-08-24T13:11:20.251Z,22.57
2017-08-24T13:13:48.590Z,22.40
2017-08-24T13:16:16.936Z,20.00
2017-08-24T13:18:45.258Z,17.57
2017-08-24T13:21:13.577Z,16.40
2017-08-24T13:23:41.919Z,14.80
2017-08-24T13:26:10.233Z,14.53
2017-08-24T13:28:38.574Z,15.47
2017-08-24T13:31:06.890Z,14.13
2017-08-24T13:33:35.207Z,13.67
2017-08-24T13:36:03.534Z,13.93
2017-08-24T13:38:32.087Z,13.80
2017-08-24T13:41:00.663Z,15.00
2017-08-24T13:43:28.977Z,16.10
2017-08-24T13:45:57.294Z,14.37
2017-08-24T13:48:25.610Z,16.90
2017-08-24T13:50:53.927Z,15.10
2017-08-24T13:53:22.241Z,16.53
2017-08-24T13:55:50.578Z,19.87
2017-08-24T13:58:18.897Z,19.27
2017-08-24T14:00:47.231Z,18.00
2017-08-24T14:03:15.538Z,16.80
2017-08-24T14:05:43.859Z,18.57
2017-08-24T14:08:12.167Z,17.17
2017-08-24T14:10:40.488Z,16.87
2017-08-24T14:13:08.822Z,17.20
2017-08-24T14:15:37.143Z,16.47
2017-08-24T14:18:05.485Z,15.97
2017-08-24T14:20:33.802Z,18.60
2017-08-24T14:23:02.110Z,15.50
2017-08-24T14:25:30.426Z,16.37
2017-08-24T14:27:58.734Z,17.50
2017-08-24T14:30:27.058Z,17.53
2017-08-24T14:32:55.380Z,17.10
2017-08-24T14:35:23.711Z,16.70
2017-08-24T14:37:52.029Z,15.63
2017-08-24T14:40:20.337Z,13.60
2017-08-24T14:42:48.650Z,14.73
2017-08-24T14:45:16.981Z,16.20
2017-08-24T14:47:45.301Z,14.17
2017-08-24T14:50:13.607Z,12.37
2017-08-24T14:52:41.925Z,13.23
2017-08-24T14:55:10.234Z,11.50
2017-08-24T14:57:38.557Z,12.17
2017-08-24T15:00:06.874Z,13.10
2017-08-24T15:02:35.197Z,14.13
2017-08-24T15:05:03.506Z,13.87
2017-08-24T15:07:31.826Z,12.33
2017-08-24T15:10:00.142Z,13.93
2017-08-24T15:12:28.458Z,11.50
2017-08-24T15:14:56.780Z,11.10
2017-08-24T15:17:25.097Z,10.70
2017-08-24T15:19:53.418Z,10.47
2017-08-24T15:22:21.841Z,9.60
2017-08-24T15:24:50.154Z,10.60
2017-08-24T15:27:18.478Z,10.90
2017-08-24T15:29:46.789Z,11.67
2017-08-24T15:32:15.105Z,10.80
2017-08-24T15:34:43.419Z,11.37
2017-08-24T15:37:11.748Z,11.90
2017-08-24T15:39:40.053Z,12.10
2017-08-24T15:42:08.382Z,11.70
2017-08-24T15:44:36.705Z,11.10
2017-08-24T15:47:05.039Z,11.27
2017-08-24T15:49:33.346Z,10.17
2017-08-24T15:52:01.653Z,9.70
2017-08-24T15:54:29.973Z,9.63
2017-08-24T15:56:58.389Z,11.77
2017-08-24T15:59:26.706Z,10.53
2017-08-24T16:01:55.018Z,12.47
2017-08-24T16:04:23.338Z,10.93
2017-08-24T16:06:51.647Z,12.93
2017-08-24T16:09:19.965Z,11.87
2017-08-24T16:11:48.270Z,11.17
2017-08-24T16:14:16.607Z,12.53
2017-08-24T16:16:44.938Z,13.50
2017-08-24T16:19:13.286Z,14.10
2017-08-24T16:21:41.597Z,13.43
2017-08-24T16:24:09.914Z,13.10
2017-08-24T16:26:38.221Z,12.27
2017-08-24T16:29:06.535Z,11.27
2017-08-24T16:31:34.847Z,14.37
2017-08-24T16:34:03.170Z,15.90
2017-08-24T16:36:31.476Z,15.17
2017-08-24T16:38:59.801Z,14.60
2017-08-24T16:41:28.126Z,15.07
2017-08-24T16:43:56.445Z,15.80
2017-08-24T16:46:24.753Z,15.80
2017-08-24T16:48:53.081Z,16.00
2017-08-24T16:51:21.397Z,18.70
2017-08-24T16:53:49.734Z,17.33
2017-08-24T16:56:18.049Z,16.20
2017-08-24T16:58:46.349Z,16.53
2017-08-24T17:01:14.666Z,16.93
2017-08-24T17:03:42.971Z,16.57
2017-08-24T17:06:11.287Z,17.57
2017-08-24T17:08:39.634Z,16.20
2017-08-24T17:11:08.249Z,19.10
2017-08-24T17:13:36.759Z,15.60
2017-08-24T17:16:05.089Z,18.23
2017-08-24T17:18:33.394Z,17.70
2017-08-24T17:21:01.718Z,18.87
2017-08-24T17:23:30.034Z,16.73
2017-08-24T17:25:58.365Z,16.27
2017-08-24T17:28:26.685Z,15.87
2017-08-24T17:30:55.008Z,15.47
2017-08-24T17:33:23.326Z,15.40
2017-08-24T17:35:51.850Z,14.27
2017-08-24T17:38:20.166Z,14.87
2017-08-24T17:40:48.490Z,13.70
2017-08-24T17:43:16.868Z,16.97
2017-08-24T17:45:45.199Z,15.40
2017-08-24T17:48:13.505Z,14.00
2017-08-24T17:50:41.860Z,14.90
2017-08-24T17:53:10.188Z,14.63
2017-08-24T17:55:37.804Z,15.53
2017-08-24T17:58:06.211Z,14.93
2017-08-24T18:00:34.547Z,15.00
2017-08-24T18:03:02.861Z,14.17
2017-08-24T18:05:31.202Z,15.57
2017-08-24T18:07:59.518Z,13.53
2017-08-24T18:10:27.829Z,15.70
2017-08-24T18:12:56.138Z,16.00
2017-08-24T18:15:24.450Z,15.60
2017-08-24T18:17:53.574Z,17.07
2017-08-24T18:20:21.883Z,16.07
2017-08-24T18:22:50.199Z,16.17
2017-08-24T18:25:18.504Z,15.83
2017-08-24T18:27:46.821Z,15.83
2017-08-24T18:30:15.129Z,14.53
2017-08-24T18:32:43.455Z,16.53
2017-08-24T18:35:11.770Z,16.83
2017-08-24T18:37:40.111Z,18.60
2017-08-24T18:40:08.422Z,19.33
2017-08-24T18:42:36.775Z,17.23
2017-08-24T18:45:05.167Z,19.60
2017-08-24T18:47:34.058Z,18.57
2017-08-24T18:50:02.597Z,18.80
2017-08-24T18:52:31.366Z,20.43
2017-08-24T18:55:00.790Z,21.30
2017-08-24T18:57:29.335Z,17.00
2017-08-24T18:59:57.661Z,20.13
2017-08-24T19:02:26.029Z,19.77
2017-08-24T19:04:54.358Z,22.07
2017-08-24T19:07:22.679Z,23.30
2017-08-24T19:09:51.010Z,24.10
2017-08-24T19:12:19.365Z,21.83
2017-08-24T19:14:47.698Z,22.13
2017-08-24T19:17:16.036Z,22.93
2017-08-24T19:19:44.373Z,20.87
2017-08-24T19:22:12.694Z,21.90
2017-08-24T19:24:41.011Z,21.77
2017-08-24T19:27:09.328Z,20.23
2017-08-24T19:29:37.646Z,21.43
2017-08-24T19:32:05.956Z,20.73
2017-08-24T19:34:34.337Z,22.20
2017-08-24T19:37:02.658Z,21.40
2017-08-24T19:39:30.984Z,22.20
2017-08-24T19:41:59.291Z,23.43
2017-08-24T19:44:27.690Z,26.10
2017-08-24T19:46:55.997Z,21.87
2017-08-24T19:49:24.323Z,21.60
2017-08-24T19:51:52.642Z,22.33
2017-08-24T19:54:20.965Z,22.10
2017-08-24T19:56:49.274Z,24.73
2017-08-24T19:59:17.618Z,25.40
2017-08-24T20:01:45.932Z,25.00
2017-08-24T20:04:14.253Z,26.30
2017-08-24T20:06:42.564Z,27.60
2017-08-24T20:09:10.881Z,28.20
2017-08-24T20:11:39.194Z,26.87
2017-08-24T20:14:07.504Z,28.03
2017-08-24T20:16:35.814Z,28.47
2017-08-24T20:19:04.148Z,28.20
2017-08-24T20:21:32.468Z,27.87
2017-08-24T20:24:00.822Z,27.60
2017-08-24T20:26:29.134Z,28.70
2017-08-24T20:28:57.454Z,28.53
2017-08-24T20:31:25.786Z,32.40
2017-08-24T20:33:54.101Z,29.37
2017-08-24T20:36:22.422Z,37.03
2017-08-24T20:38:50.746Z,35.27
2017-08-24T20:41:19.067Z,34.77
2017-08-24T20:43:47.385Z,36.57
2017-08-24T20:46:15.703Z,32.27
2017-08-24T20:48:44.017Z,33.57
2017-08-24T20:51:12.335Z,35.20
2017-08-24T20:53:40.650Z,36.77
2017-08-24T20:56:08.995Z,32.57
2017-08-24T20:58:37.301Z,33.87
2017-08-24T21:01:05.622Z,34.87
2017-08-24T21:03:33.981Z,34.77
2017-08-24T21:06:02.312Z,35.40
2017-08-24T21:08:30.625Z,34.63
2017-08-24T21:10:58.957Z,36.43
2017-08-24T21:13:27.295Z,37.50
2017-08-24T21:15:55.619Z,38.40
2017-08-24T21:18:23.939Z,37.07
2017-08-24T21:20:52.263Z,38.93
2017-08-24T21:23:20.578Z,40.00
2017-08-24T21:25:48.898Z,39.20
2017-08-24T21:28:17.214Z,38.17
2017-08-24T21:30:45.565Z,36.50
2017-08-24T21:33:13.879Z,38.30
2017-08-24T21:35:42.212Z,40.17
2017-08-24T21:38:10.558Z,38.80
2017-08-24T21:40:38.878Z,36.67
2017-08-24T21:43:08.038Z,35.70
2017-08-24T21:45:36.371Z,36.70
2017-08-24T21:48:04.690Z,35.03
2017-08-24T21:50:33.006Z,38.20
2017-08-24T21:53:01.330Z,37.00
2017-08-24T21:55:29.666Z,35.30
2017-08-24T21:57:58.004Z,37.77
2017-08-24T22:00:26.317Z,36.30
2017-08-24T22:02:54.638Z,34.50
2017-08-24T22:05:22.949Z,36.37
2017-08-24T22:07:51.266Z,35.13
2017-08-24T22:10:19.572Z,38.37
2017-08-24T22:12:47.889Z,34.50
2017-08-24T22:15:16.210Z,35.27
2017-08-24T22:17:44.541Z,36.67
2017-08-24T22:20:12.854Z,35.00
2017-08-24T22:22:41.188Z,38.17
2017-08-24T22:25:09.517Z,38.00
2017-08-24T22:27:37.829Z,36.40
2017-08-24T22:30:06.139Z,36.30
2017-08-24T22:32:34.465Z,40.43
2017-08-24T22:35:02.780Z,38.30
2017-08-24T22:37:31.097Z,40.13
2017-08-24T22:39:59.402Z,40.83
2017-08-24T22:42:27.751Z,42.20
2017-08-24T22:44:56.062Z,45.73
2017-08-24T22:47:24.373Z,47.20
2017-08-24T22:49:52.690Z,45.93
2017-08-24T22:52:20.993Z,47.90
2017-08-24T22:54:54.723Z,48.20
2017-08-24T22:57:28.599Z,46.47
2017-08-24T23:00:02.259Z,44.60
2017-08-24T23:05:37.422Z,47.87
2017-08-24T23:08:05.728Z,49.93
2017-08-24T23:10:34.042Z,48.03
2017-08-24T23:13:02.356Z,49.40
2017-08-24T23:15:30.673Z,48.50
2017-08-24T23:17:58.992Z,51.00
2017-08-24T23:20:27.320Z,48.10
2017-08-24T23:22:55.634Z,48.67
2017-08-24T23:25:23.950Z,49.43
2017-08-24T23:27:52.272Z,47.47
2017-08-24T23:30:20.605Z,51.57
2017-08-24T23:32:48.921Z,50.80
2017-08-24T23:35:17.251Z,49.80
2017-08-24T23:37:45.573Z,51.07
2017-08-24T23:40:13.903Z,45.77
2017-08-24T23:42:42.202Z,47.97
2017-08-24T23:45:10.527Z,46.20
2017-08-24T23:47:38.847Z,45.77
2017-08-24T23:50:07.161Z,46.50
2017-08-24T23:52:35.478Z,48.03
2017-08-24T23:55:03.794Z,52.83
2017-08-24T23:57:32.106Z,47.67
